Terminal Aerodrome Forecast
Issued by NWS Charleston, WV

Current Version | Previous Version | Text Only | Print | Product List | Glossary Off
Versions: 1 2 3 4 5 6 7 8 9 10 11 12 13 14 15 16 17 18 19 20 21 22 23 24 25 26 27 28 29 30 31 32 33

000
FTUS41 KRLX 281139
TAFEKN
TAF
KEKN 281139Z 2812/2912 00000KT 5SM BR VCSH SCT015 OVC050
     FM281500 VRB03KT P6SM BKN050
     FM281800 26004KT 5SM -TSRA BR BKN040CB
     FM290000 00000KT P6SM +TSRA OVC025CB=

USA.gov is the U.S. government's official web portal to all federal, state and local government web resources and services.